PWSweather.com
Personal Weather Stations
Station Observations
WODONGA
Wodonga, WodongaAU 3690

WodongaWodongaAU 3690

Lat: -36.121, Lon: 146.87

Elevation: 541

Station Type: Weather Station

http://www.wodongaweather.net

Latest ConditionsUpdated 9:40:02 AM GMT+10:10 Wednesday, Jun 1, 2016
Currently Today's Max Today's Min Today's Average
Temperature 50.9°F10.5°C 50.9°F10.5°C 40.1°F4.5°C 42.7°F5.9°C
Dew Point 45.3°F7.4°C 45.3°F7.4°C 36.8°F2.7°C 38.9°F3.8°C
Winds 2.6 mph S4.2 kmh S 3.2 mph S5.1 kmh S - 1.7 mph 2.7 kmh
Wind Gusts 3.8 mph6.1 kmh 3.8 mph6.1 kmh - -
Humidity 81% 89% 81% 87%
Pressure 30.38 in1028.8 mb 30.38 in1028.8 mb 30.33 in1027.1 mb -
Hour Temp Dew Point Humidity Winds Wind Gusts Pressure Precip Precip Rate Daily Precip Total
09:40 AM 50.9°F10.5°C 45.3°F7.4°C 81% 2.6 mph S4.2 kmh S 3.8 mph6.1 kmh 30.38 in1028.8 mb 0.00 in0.0 mm 0.00 in0.0 mm 0.00 in0.0 mm
09:35 AM 49.8°F9.9°C 44.9°F7.2°C 83% 2.7 mph S4.3 kmh S 3.8 mph6.1 kmh 30.38 in1028.8 mb 0.00 in0.0 mm 0.00 in0.0 mm 0.00 in0.0 mm
09:30 AM 48.6°F9.2°C 43.6°F6.4°C 83% 2.2 mph S3.5 kmh S 3.1 mph5.0 kmh 30.38 in1028.8 mb 0.00 in0.0 mm 0.00 in0.0 mm 0.00 in0.0 mm
09:25 AM 47.8°F8.8°C 42.9°F6.1°C 83% 2.2 mph S3.5 kmh S 3.1 mph5.0 kmh 30.38 in1028.8 mb 0.00 in0.0 mm 0.00 in0.0 mm 0.00 in0.0 mm
09:20 AM 47.5°F8.6°C 42.3°F5.7°C 82% 2.5 mph S4.0 kmh S 3.1 mph5.0 kmh 30.38 in1028.8 mb 0.00 in0.0 mm 0.00 in0.0 mm 0.00 in0.0 mm
09:15 AM 47.8°F8.8°C 42.6°F5.9°C 82% 2.6 mph S4.2 kmh S 3.8 mph6.1 kmh 30.38 in1028.8 mb 0.00 in0.0 mm 0.00 in0.0 mm 0.00 in0.0 mm
09:10 AM 48.0°F8.9°C 42.8°F6.0°C 82% 2.8 mph S4.5 kmh S 3.8 mph6.1 kmh 30.38 in1028.8 mb 0.00 in0.0 mm 0.00 in0.0 mm 0.00 in0.0 mm
09:05 AM 48.4°F9.1°C 43.8°F6.6°C 84% 3.1 mph S5.0 kmh S 3.8 mph6.1 kmh 30.38 in1028.8 mb 0.00 in0.0 mm 0.00 in0.0 mm 0.00 in0.0 mm
09:00 AM 47.8°F8.8°C 43.9°F6.6°C 86% 2.6 mph S4.2 kmh S 3.8 mph6.1 kmh 30.38 in1028.8 mb 0.00 in0.0 mm 0.00 in0.0 mm 0.00 in0.0 mm
08:55 AM 46.8°F8.2°C 43.1°F6.2°C 87% 2.1 mph S3.4 kmh S 3.1 mph5.0 kmh 30.38 in1028.8 mb 0.00 in0.0 mm 0.00 in0.0 mm 0.00 in0.0 mm
08:50 AM 45.5°F7.5°C 41.9°F5.5°C 87% 1.9 mph S3.1 kmh S 3.1 mph5.0 kmh 30.38 in1028.8 mb 0.00 in0.0 mm 0.00 in0.0 mm 0.00 in0.0 mm
08:45 AM 44.2°F6.8°C 40.6°F4.8°C 87% 1.7 mph S2.7 kmh S 2.2 mph3.5 kmh 30.38 in1028.8 mb 0.00 in0.0 mm 0.00 in0.0 mm 0.00 in0.0 mm
08:40 AM 44.1°F6.7°C 40.1°F4.5°C 86% 1.9 mph S3.1 kmh S 2.2 mph3.5 kmh 30.38 in1028.8 mb 0.00 in0.0 mm 0.00 in0.0 mm 0.00 in0.0 mm
08:35 AM 44.1°F6.7°C 40.1°F4.5°C 86% 2.5 mph S4.0 kmh S 3.8 mph6.1 kmh 30.38 in1028.8 mb 0.00 in0.0 mm 0.00 in0.0 mm 0.00 in0.0 mm
08:30 AM 44.1°F6.7°C 40.1°F4.5°C 86% 3.2 mph S5.1 kmh S 3.8 mph6.1 kmh 30.38 in1028.8 mb 0.00 in0.0 mm 0.00 in0.0 mm 0.00 in0.0 mm
08:25 AM 44.1°F6.7°C 40.4°F4.7°C 87% 3.1 mph S5.0 kmh S 3.8 mph6.1 kmh 30.37 in1028.4 mb 0.00 in0.0 mm 0.00 in0.0 mm 0.00 in0.0 mm
08:20 AM 43.7°F6.5°C 40.4°F4.7°C 88% 2.8 mph S4.5 kmh S 3.1 mph5.0 kmh 30.38 in1028.8 mb 0.00 in0.0 mm 0.00 in0.0 mm 0.00 in0.0 mm
08:15 AM 43.3°F6.3°C 40.0°F4.4°C 88% 2.8 mph S4.5 kmh S 3.1 mph5.0 kmh 30.37 in1028.4 mb 0.00 in0.0 mm 0.00 in0.0 mm 0.00 in0.0 mm
08:10 AM 43.0°F6.1°C 39.7°F4.3°C 88% 2.1 mph S3.4 kmh S 3.1 mph5.0 kmh 30.38 in1028.8 mb 0.00 in0.0 mm 0.00 in0.0 mm 0.00 in0.0 mm
08:05 AM 42.4°F5.8°C 39.1°F3.9°C 88% 1.7 mph S2.7 kmh S 2.2 mph3.5 kmh 30.38 in1028.8 mb 0.00 in0.0 mm 0.00 in0.0 mm 0.00 in0.0 mm
08:00 AM 42.1°F5.6°C 38.8°F3.8°C 88% 2.0 mph SSW3.2 kmh SSW 2.2 mph3.5 kmh 30.37 in1028.4 mb 0.00 in0.0 mm 0.00 in0.0 mm 0.00 in0.0 mm
07:55 AM 41.9°F5.5°C 38.6°F3.7°C 88% 2.1 mph S3.4 kmh S 3.1 mph5.0 kmh 30.38 in1028.8 mb 0.00 in0.0 mm 0.00 in0.0 mm 0.00 in0.0 mm
07:45 AM 41.5°F5.3°C 38.3°F3.5°C 88% 2.4 mph S3.9 kmh S 3.1 mph5.0 kmh 30.37 in1028.4 mb 0.00 in0.0 mm 0.00 in0.0 mm 0.00 in0.0 mm
07:40 AM 41.5°F5.3°C 38.3°F3.5°C 88% 2.4 mph S3.9 kmh S 3.1 mph5.0 kmh 30.37 in1028.4 mb 0.00 in0.0 mm 0.00 in0.0 mm 0.00 in0.0 mm
07:35 AM 41.4°F5.2°C 38.4°F3.6°C 89% 2.2 mph S3.5 kmh S 2.2 mph3.5 kmh 30.37 in1028.4 mb 0.00 in0.0 mm 0.00 in0.0 mm 0.00 in0.0 mm
07:30 AM 41.2°F5.1°C 38.2°F3.4°C 89% 2.3 mph S3.7 kmh S 3.1 mph5.0 kmh 30.37 in1028.4 mb 0.00 in0.0 mm 0.00 in0.0 mm 0.00 in0.0 mm
07:25 AM 41.0°F5.0°C 38.0°F3.3°C 89% 2.1 mph S3.4 kmh S 3.1 mph5.0 kmh 30.37 in1028.4 mb 0.00 in0.0 mm 0.00 in0.0 mm 0.00 in0.0 mm
07:20 AM 41.2°F5.1°C 38.2°F3.4°C 89% 2.0 mph S3.2 kmh S 2.2 mph3.5 kmh 30.37 in1028.4 mb 0.00 in0.0 mm 0.00 in0.0 mm 0.00 in0.0 mm
07:15 AM 41.2°F5.1°C 38.2°F3.4°C 89% 2.4 mph SSE3.9 kmh SSE 3.1 mph5.0 kmh 30.37 in1028.4 mb 0.00 in0.0 mm 0.00 in0.0 mm 0.00 in0.0 mm
07:10 AM 41.0°F5.0°C 38.0°F3.3°C 89% 2.9 mph S4.7 kmh S 3.8 mph6.1 kmh 30.36 in1028.1 mb 0.00 in0.0 mm 0.00 in0.0 mm 0.00 in0.0 mm
07:05 AM 40.6°F4.8°C 37.7°F3.2°C 89% 2.5 mph S4.0 kmh S 3.8 mph6.1 kmh 30.37 in1028.4 mb 0.00 in0.0 mm 0.00 in0.0 mm 0.00 in0.0 mm
07:00 AM 40.6°F4.8°C 37.7°F3.2°C 89% 2.1 mph S3.4 kmh S 2.2 mph3.5 kmh 30.36 in1028.1 mb 0.00 in0.0 mm 0.00 in0.0 mm 0.00 in0.0 mm
06:55 AM 40.5°F4.7°C 37.5°F3.1°C 89% 2.6 mph S4.2 kmh S 3.1 mph5.0 kmh 30.36 in1028.1 mb 0.00 in0.0 mm 0.00 in0.0 mm 0.00 in0.0 mm
06:50 AM 40.3°F4.6°C 37.3°F2.9°C 89% 2.7 mph S4.3 kmh S 3.1 mph5.0 kmh 30.36 in1028.1 mb 0.00 in0.0 mm 0.00 in0.0 mm 0.00 in0.0 mm
06:45 AM 40.1°F4.5°C 37.1°F2.8°C 89% 2.0 mph S3.2 kmh S 3.1 mph5.0 kmh 30.36 in1028.1 mb 0.00 in0.0 mm 0.00 in0.0 mm 0.00 in0.0 mm
06:40 AM 40.5°F4.7°C 37.5°F3.1°C 89% 1.3 mph SSW2.1 kmh SSW 2.2 mph3.5 kmh 30.36 in1028.1 mb 0.00 in0.0 mm 0.00 in0.0 mm 0.00 in0.0 mm
06:35 AM 40.3°F4.6°C 37.3°F2.9°C 89% 1.1 mph WSW1.8 kmh WSW 2.2 mph3.5 kmh 30.36 in1028.1 mb 0.00 in0.0 mm 0.00 in0.0 mm 0.00 in0.0 mm
06:30 AM 40.1°F4.5°C 37.1°F2.8°C 89% 1.6 mph S2.6 kmh S 3.1 mph5.0 kmh 30.36 in1028.1 mb 0.00 in0.0 mm 0.00 in0.0 mm 0.00 in0.0 mm
06:25 AM 40.1°F4.5°C 37.1°F2.8°C 89% 2.2 mph S3.5 kmh S 3.1 mph5.0 kmh 30.36 in1028.1 mb 0.00 in0.0 mm 0.00 in0.0 mm 0.00 in0.0 mm
06:20 AM 40.1°F4.5°C 36.8°F2.7°C 88% 2.1 mph S3.4 kmh S 3.1 mph5.0 kmh 30.36 in1028.1 mb 0.00 in0.0 mm 0.00 in0.0 mm 0.00 in0.0 mm
06:15 AM 40.1°F4.5°C 36.8°F2.7°C 88% 0.9 mph S1.4 kmh S 2.2 mph3.5 kmh 30.35 in1027.8 mb 0.00 in0.0 mm 0.00 in0.0 mm 0.00 in0.0 mm
06:10 AM 40.1°F4.5°C 36.8°F2.7°C 88% 0.4 mph S0.6 kmh S 1.6 mph2.6 kmh 30.35 in1027.8 mb 0.00 in0.0 mm 0.00 in0.0 mm 0.00 in0.0 mm
06:05 AM 40.1°F4.5°C 36.8°F2.7°C 88% 1.3 mph S2.1 kmh S 2.2 mph3.5 kmh 30.35 in1027.8 mb 0.00 in0.0 mm 0.00 in0.0 mm 0.00 in0.0 mm
06:00 AM 40.5°F4.7°C 36.9°F2.7°C 87% 1.9 mph S3.1 kmh S 2.2 mph3.5 kmh 30.35 in1027.8 mb 0.00 in0.0 mm 0.00 in0.0 mm 0.00 in0.0 mm
05:55 AM 40.6°F4.8°C 37.1°F2.8°C 87% 1.9 mph S3.1 kmh S 3.1 mph5.0 kmh 30.35 in1027.8 mb 0.00 in0.0 mm 0.00 in0.0 mm 0.00 in0.0 mm
05:50 AM 40.8°F4.9°C 37.3°F2.9°C 87% 1.8 mph S2.9 kmh S 3.1 mph5.0 kmh 30.35 in1027.8 mb 0.00 in0.0 mm 0.00 in0.0 mm 0.00 in0.0 mm
05:45 AM 40.8°F4.9°C 37.3°F2.9°C 87% 1.5 mph S2.4 kmh S 2.2 mph3.5 kmh 30.35 in1027.8 mb 0.00 in0.0 mm 0.00 in0.0 mm 0.00 in0.0 mm
05:40 AM 40.8°F4.9°C 37.3°F2.9°C 87% 1.1 mph S1.8 kmh S 2.2 mph3.5 kmh 30.35 in1027.8 mb 0.00 in0.0 mm 0.00 in0.0 mm 0.00 in0.0 mm
05:35 AM 40.8°F4.9°C 37.3°F2.9°C 87% 0.8 mph SW1.3 kmh SW 1.6 mph2.6 kmh 30.34 in1027.4 mb 0.00 in0.0 mm 0.00 in0.0 mm 0.00 in0.0 mm
05:30 AM 41.0°F5.0°C 37.4°F3.0°C 87% 0.6 mph SW1.0 kmh SW 1.6 mph2.6 kmh 30.35 in1027.8 mb 0.00 in0.0 mm 0.00 in0.0 mm 0.00 in0.0 mm
05:25 AM 41.0°F5.0°C 37.4°F3.0°C 87% 0.2 mph SW0.3 kmh SW 1.6 mph2.6 kmh 30.34 in1027.4 mb 0.00 in0.0 mm 0.00 in0.0 mm 0.00 in0.0 mm
05:20 AM 41.0°F5.0°C 37.4°F3.0°C 87% 0.4 mph SW0.6 kmh SW 1.6 mph2.6 kmh 30.34 in1027.4 mb 0.00 in0.0 mm 0.00 in0.0 mm 0.00 in0.0 mm
05:15 AM 41.2°F5.1°C 37.6°F3.1°C 87% 0.6 mph SW1.0 kmh SW 1.6 mph2.6 kmh 30.34 in1027.4 mb 0.00 in0.0 mm 0.00 in0.0 mm 0.00 in0.0 mm
05:10 AM 41.2°F5.1°C 37.6°F3.1°C 87% 0.9 mph WSW1.4 kmh WSW 2.2 mph3.5 kmh 30.34 in1027.4 mb 0.00 in0.0 mm 0.00 in0.0 mm 0.00 in0.0 mm
05:05 AM 41.2°F5.1°C 37.6°F3.1°C 87% 1.1 mph WSW1.8 kmh WSW 2.2 mph3.5 kmh 30.34 in1027.4 mb 0.00 in0.0 mm 0.00 in0.0 mm 0.00 in0.0 mm
05:00 AM 41.0°F5.0°C 37.4°F3.0°C 87% 1.1 mph W1.8 kmh W 1.6 mph2.6 kmh 30.34 in1027.4 mb 0.00 in0.0 mm 0.00 in0.0 mm 0.00 in0.0 mm
04:55 AM 41.2°F5.1°C 37.6°F3.1°C 87% 1.6 mph SW2.6 kmh SW 2.2 mph3.5 kmh 30.34 in1027.4 mb 0.00 in0.0 mm 0.00 in0.0 mm 0.00 in0.0 mm
04:50 AM 41.4°F5.2°C 37.8°F3.2°C 87% 1.9 mph S3.1 kmh S 2.2 mph3.5 kmh 30.33 in1027.1 mb 0.00 in0.0 mm 0.00 in0.0 mm 0.00 in0.0 mm
04:45 AM 41.4°F5.2°C 37.8°F3.2°C 87% 2.0 mph S3.2 kmh S 2.2 mph3.5 kmh 30.33 in1027.1 mb 0.00 in0.0 mm 0.00 in0.0 mm 0.00 in0.0 mm
04:40 AM 41.5°F5.3°C 37.7°F3.2°C 86% 1.9 mph S3.1 kmh S 2.2 mph3.5 kmh 30.34 in1027.4 mb 0.00 in0.0 mm 0.00 in0.0 mm 0.00 in0.0 mm
04:35 AM 41.5°F5.3°C 37.7°F3.2°C 86% 1.5 mph SSW2.4 kmh SSW 2.2 mph3.5 kmh 30.34 in1027.4 mb 0.00 in0.0 mm 0.00 in0.0 mm 0.00 in0.0 mm
04:30 AM 41.5°F5.3°C 38.0°F3.3°C 87% 1.7 mph S2.7 kmh S 2.2 mph3.5 kmh 30.33 in1027.1 mb 0.00 in0.0 mm 0.00 in0.0 mm 0.00 in0.0 mm
04:25 AM 41.5°F5.3°C 38.0°F3.3°C 87% 1.9 mph S3.1 kmh S 2.2 mph3.5 kmh 30.34 in1027.4 mb 0.00 in0.0 mm 0.00 in0.0 mm 0.00 in0.0 mm
04:20 AM 41.5°F5.3°C 37.7°F3.2°C 86% 1.9 mph S3.1 kmh S 2.2 mph3.5 kmh 30.34 in1027.4 mb 0.00 in0.0 mm 0.00 in0.0 mm 0.00 in0.0 mm
04:15 AM 41.7°F5.4°C 37.8°F3.2°C 86% 2.1 mph S3.4 kmh S 3.1 mph5.0 kmh 30.34 in1027.4 mb 0.00 in0.0 mm 0.00 in0.0 mm 0.00 in0.0 mm
04:10 AM 42.1°F5.6°C 38.2°F3.4°C 86% 1.3 mph S2.1 kmh S 3.1 mph5.0 kmh 30.34 in1027.4 mb 0.00 in0.0 mm 0.00 in0.0 mm 0.00 in0.0 mm
04:05 AM 42.3°F5.7°C 38.4°F3.6°C 86% 0.4 mph S0.6 kmh S 1.6 mph2.6 kmh 30.34 in1027.4 mb 0.00 in0.0 mm 0.00 in0.0 mm 0.00 in0.0 mm
04:00 AM 42.3°F5.7°C 38.4°F3.6°C 86% 0.8 mph S1.3 kmh S 1.6 mph2.6 kmh 30.34 in1027.4 mb 0.00 in0.0 mm 0.00 in0.0 mm 0.00 in0.0 mm
03:55 AM 42.4°F5.8°C 38.6°F3.7°C 86% 1.7 mph S2.7 kmh S 2.2 mph3.5 kmh 30.34 in1027.4 mb 0.00 in0.0 mm 0.00 in0.0 mm 0.00 in0.0 mm
03:50 AM 42.6°F5.9°C 38.7°F3.7°C 86% 2.3 mph SSE3.7 kmh SSE 3.1 mph5.0 kmh 30.34 in1027.4 mb 0.00 in0.0 mm 0.00 in0.0 mm 0.00 in0.0 mm
03:45 AM 42.4°F5.8°C 38.6°F3.7°C 86% 2.5 mph SE4.0 kmh SE 3.1 mph5.0 kmh 30.34 in1027.4 mb 0.00 in0.0 mm 0.00 in0.0 mm 0.00 in0.0 mm
03:40 AM 42.4°F5.8°C 38.6°F3.7°C 86% 2.8 mph SE4.5 kmh SE 3.1 mph5.0 kmh 30.34 in1027.4 mb 0.00 in0.0 mm 0.00 in0.0 mm 0.00 in0.0 mm
03:35 AM 42.6°F5.9°C 38.7°F3.7°C 86% 2.5 mph SSE4.0 kmh SSE 3.1 mph5.0 kmh 30.34 in1027.4 mb 0.00 in0.0 mm 0.00 in0.0 mm 0.00 in0.0 mm
03:30 AM 42.4°F5.8°C 38.6°F3.7°C 86% 2.4 mph SSE3.9 kmh SSE 3.1 mph5.0 kmh 30.34 in1027.4 mb 0.00 in0.0 mm 0.00 in0.0 mm 0.00 in0.0 mm
03:25 AM 42.4°F5.8°C 38.6°F3.7°C 86% 2.2 mph S3.5 kmh S 3.1 mph5.0 kmh 30.34 in1027.4 mb 0.00 in0.0 mm 0.00 in0.0 mm 0.00 in0.0 mm
03:20 AM 42.4°F5.8°C 38.6°F3.7°C 86% 1.7 mph S2.7 kmh S 2.2 mph3.5 kmh 30.34 in1027.4 mb 0.00 in0.0 mm 0.00 in0.0 mm 0.00 in0.0 mm
03:15 AM 42.4°F5.8°C 38.6°F3.7°C 86% 1.7 mph S2.7 kmh S 2.2 mph3.5 kmh 30.34 in1027.4 mb 0.00 in0.0 mm 0.00 in0.0 mm 0.00 in0.0 mm
03:10 AM 42.8°F6.0°C 38.6°F3.7°C 85% 2.0 mph S3.2 kmh S 2.2 mph3.5 kmh 30.35 in1027.8 mb 0.00 in0.0 mm 0.00 in0.0 mm 0.00 in0.0 mm
03:05 AM 43.0°F6.1°C 39.1°F3.9°C 86% 2.3 mph S3.7 kmh S 3.8 mph6.1 kmh 30.35 in1027.8 mb 0.00 in0.0 mm 0.00 in0.0 mm 0.00 in0.0 mm
03:00 AM 43.0°F6.1°C 39.1°F3.9°C 86% 2.7 mph S4.3 kmh S 3.8 mph6.1 kmh 30.35 in1027.8 mb 0.00 in0.0 mm 0.00 in0.0 mm 0.00 in0.0 mm
02:55 AM 43.0°F6.1°C 39.1°F3.9°C 86% 2.7 mph S4.3 kmh S 3.1 mph5.0 kmh 30.35 in1027.8 mb 0.00 in0.0 mm 0.00 in0.0 mm 0.00 in0.0 mm
02:50 AM 43.0°F6.1°C 39.1°F3.9°C 86% 2.4 mph S3.9 kmh S 3.1 mph5.0 kmh 30.35 in1027.8 mb 0.00 in0.0 mm 0.00 in0.0 mm 0.00 in0.0 mm
02:45 AM 43.0°F6.1°C 39.1°F3.9°C 86% 2.0 mph S3.2 kmh S 3.1 mph5.0 kmh 30.35 in1027.8 mb 0.00 in0.0 mm 0.00 in0.0 mm 0.00 in0.0 mm
02:40 AM 43.2°F6.2°C 39.3°F4.1°C 86% 1.9 mph S3.1 kmh S 2.2 mph3.5 kmh 30.35 in1027.8 mb 0.00 in0.0 mm 0.00 in0.0 mm 0.00 in0.0 mm
02:35 AM 43.2°F6.2°C 39.3°F4.1°C 86% 2.3 mph S3.7 kmh S 3.1 mph5.0 kmh 30.35 in1027.8 mb 0.00 in0.0 mm 0.00 in0.0 mm 0.00 in0.0 mm
02:30 AM 43.2°F6.2°C 39.3°F4.1°C 86% 2.7 mph S4.3 kmh S 3.1 mph5.0 kmh 30.35 in1027.8 mb 0.00 in0.0 mm 0.00 in0.0 mm 0.00 in0.0 mm
02:25 AM 43.2°F6.2°C 39.3°F4.1°C 86% 2.6 mph S4.2 kmh S 3.1 mph5.0 kmh 30.35 in1027.8 mb 0.00 in0.0 mm 0.00 in0.0 mm 0.00 in0.0 mm
02:20 AM 43.2°F6.2°C 39.3°F4.1°C 86% 2.6 mph S4.2 kmh S 3.1 mph5.0 kmh 30.35 in1027.8 mb 0.00 in0.0 mm 0.00 in0.0 mm 0.00 in0.0 mm
02:15 AM 43.0°F6.1°C 39.1°F3.9°C 86% 2.4 mph S3.9 kmh S 3.1 mph5.0 kmh 30.35 in1027.8 mb 0.00 in0.0 mm 0.00 in0.0 mm 0.00 in0.0 mm
02:10 AM 42.8°F6.0°C 38.9°F3.8°C 86% 2.2 mph S3.5 kmh S 3.1 mph5.0 kmh 30.35 in1027.8 mb 0.00 in0.0 mm 0.00 in0.0 mm 0.00 in0.0 mm
02:05 AM 42.6°F5.9°C 39.0°F3.9°C 87% 1.5 mph S2.4 kmh S 2.2 mph3.5 kmh 30.35 in1027.8 mb 0.00 in0.0 mm 0.00 in0.0 mm 0.00 in0.0 mm
02:00 AM 42.6°F5.9°C 39.0°F3.9°C 87% 1.1 mph S1.8 kmh S 1.6 mph2.6 kmh 30.35 in1027.8 mb 0.00 in0.0 mm 0.00 in0.0 mm 0.00 in0.0 mm
01:55 AM 42.6°F5.9°C 39.0°F3.9°C 87% 1.5 mph S2.4 kmh S 2.2 mph3.5 kmh 30.35 in1027.8 mb 0.00 in0.0 mm 0.00 in0.0 mm 0.00 in0.0 mm
01:50 AM 42.4°F5.8°C 38.9°F3.8°C 87% 1.8 mph S2.9 kmh S 2.2 mph3.5 kmh 30.35 in1027.8 mb 0.00 in0.0 mm 0.00 in0.0 mm 0.00 in0.0 mm
01:45 AM 42.6°F5.9°C 39.0°F3.9°C 87% 2.1 mph S3.4 kmh S 3.1 mph5.0 kmh 30.35 in1027.8 mb 0.00 in0.0 mm 0.00 in0.0 mm 0.00 in0.0 mm
01:40 AM 42.6°F5.9°C 38.7°F3.7°C 86% 1.7 mph S2.7 kmh S 3.1 mph5.0 kmh 30.35 in1027.8 mb 0.00 in0.0 mm 0.00 in0.0 mm 0.00 in0.0 mm
01:35 AM 42.8°F6.0°C 38.9°F3.8°C 86% 0.6 mph S1.0 kmh S 2.2 mph3.5 kmh 30.35 in1027.8 mb 0.00 in0.0 mm 0.00 in0.0 mm 0.00 in0.0 mm
01:30 AM 42.6°F5.9°C 38.7°F3.7°C 86% 0.2 mph SW0.3 kmh SW 0.7 mph1.1 kmh 30.35 in1027.8 mb 0.00 in0.0 mm 0.00 in0.0 mm 0.00 in0.0 mm
01:25 AM 42.6°F5.9°C 39.0°F3.9°C 87% 0.2 mph S0.3 kmh S 0.7 mph1.1 kmh 30.35 in1027.8 mb 0.00 in0.0 mm 0.00 in0.0 mm 0.00 in0.0 mm
01:20 AM 42.4°F5.8°C 38.6°F3.7°C 86% 0.1 mph S0.2 kmh S 0.7 mph1.1 kmh 30.35 in1027.8 mb 0.00 in0.0 mm 0.00 in0.0 mm 0.00 in0.0 mm
01:15 AM 42.4°F5.8°C 38.6°F3.7°C 86% Calm Calm 0.7 mph1.1 kmh 30.35 in1027.8 mb 0.00 in0.0 mm 0.00 in0.0 mm 0.00 in0.0 mm
01:10 AM 42.4°F5.8°C 38.6°F3.7°C 86% 0.3 mph S0.5 kmh S 0.7 mph1.1 kmh 30.35 in1027.8 mb 0.00 in0.0 mm 0.00 in0.0 mm 0.00 in0.0 mm
01:05 AM 42.6°F5.9°C 38.7°F3.7°C 86% 0.8 mph S1.3 kmh S 1.6 mph2.6 kmh 30.35 in1027.8 mb 0.00 in0.0 mm 0.00 in0.0 mm 0.00 in0.0 mm
01:00 AM 42.8°F6.0°C 38.9°F3.8°C 86% 0.8 mph S1.3 kmh S 1.6 mph2.6 kmh 30.35 in1027.8 mb 0.00 in0.0 mm 0.00 in0.0 mm 0.00 in0.0 mm
12:55 AM 43.0°F6.1°C 39.1°F3.9°C 86% 0.2 mph S0.3 kmh S 0.7 mph1.1 kmh 30.36 in1028.1 mb 0.00 in0.0 mm 0.00 in0.0 mm 0.00 in0.0 mm
12:50 AM 42.8°F6.0°C 38.9°F3.8°C 86% Calm Calm -- 30.36 in1028.1 mb 0.00 in0.0 mm 0.00 in0.0 mm 0.00 in0.0 mm
12:45 AM 43.2°F6.2°C 39.0°F3.9°C 85% Calm Calm -- 30.36 in1028.1 mb 0.00 in0.0 mm 0.00 in0.0 mm 0.00 in0.0 mm
12:40 AM 43.3°F6.3°C 39.4°F4.1°C 86% Calm Calm -- 30.36 in1028.1 mb 0.00 in0.0 mm 0.00 in0.0 mm 0.00 in0.0 mm
12:35 AM 43.3°F6.3°C 39.4°F4.1°C 86% Calm Calm -- 30.36 in1028.1 mb 0.00 in0.0 mm 0.00 in0.0 mm 0.00 in0.0 mm
12:30 AM 43.2°F6.2°C 39.3°F4.1°C 86% Calm Calm -- 30.36 in1028.1 mb 0.00 in0.0 mm 0.00 in0.0 mm 0.00 in0.0 mm
12:25 AM 43.2°F6.2°C 39.3°F4.1°C 86% 0.3 mph SSW0.5 kmh SSW 1.6 mph2.6 kmh 30.36 in1028.1 mb 0.00 in0.0 mm 0.00 in0.0 mm 0.00 in0.0 mm
12:20 AM 43.2°F6.2°C 39.3°F4.1°C 86% 1.2 mph S1.9 kmh S 2.2 mph3.5 kmh 30.36 in1028.1 mb 0.00 in0.0 mm 0.00 in0.0 mm 0.00 in0.0 mm
12:15 AM 43.3°F6.3°C 39.1°F3.9°C 85% 1.7 mph S2.7 kmh S 2.2 mph3.5 kmh 30.36 in1028.1 mb 0.00 in0.0 mm 0.00 in0.0 mm 0.00 in0.0 mm
12:10 AM 43.5°F6.4°C 39.3°F4.1°C 85% 1.1 mph S1.8 kmh S 2.2 mph3.5 kmh 30.36 in1028.1 mb 0.00 in0.0 mm 0.00 in0.0 mm 0.00 in0.0 mm
12:05 AM 43.5°F6.4°C 39.3°F4.1°C 85% 0.8 mph S1.3 kmh S 1.6 mph2.6 kmh 30.36 in1028.1 mb 0.00 in0.0 mm 0.00 in0.0 mm 0.00 in0.0 mm
12:00 AM 43.7°F6.5°C 39.5°F4.2°C 85% 1.0 mph S1.6 kmh S 1.6 mph2.6 kmh 30.36 in1028.1 mb 0.00 in0.0 mm 0.00 in0.0 mm 0.00 in0.0 mm